sensor_id;sensor_type;location;lat;lon;timestamp;P1;durP1;ratioP1;P2;durP2;ratioP2
63664;SDS011;49820;33.966;73.390;2024-02-16T02:40:09;13.10;;;9.17;;
63664;SDS011;49820;33.966;73.390;2024-02-16T02:55:13;16.00;;;10.52;;
63664;SDS011;49820;33.966;73.390;2024-02-16T03:01:16;15.65;;;9.90;;
63664;SDS011;49820;33.966;73.390;2024-02-16T03:03:49;14.52;;;9.73;;
63664;SDS011;49820;33.966;73.390;2024-02-16T03:06:19;12.32;;;8.98;;
63664;SDS011;49820;33.966;73.390;2024-02-16T03:08:50;13.57;;;8.27;;
63664;SDS011;49820;33.966;73.390;2024-02-16T03:14:36;12.35;;;7.93;;
63664;SDS011;49820;33.966;73.390;2024-02-16T03:17:07;15.13;;;10.10;;
63664;SDS011;49820;33.966;73.390;2024-02-16T03:19:36;15.15;;;10.88;;
63664;SDS011;49820;33.966;73.390;2024-02-16T03:22:07;16.88;;;11.30;;
63664;SDS011;49820;33.966;73.390;2024-02-16T03:24:37;15.88;;;10.88;;
63664;SDS011;49820;33.966;73.390;2024-02-16T03:27:06;17.92;;;11.60;;
63664;SDS011;49820;33.966;73.390;2024-02-16T03:37:09;16.08;;;11.32;;
63664;SDS011;49820;33.966;73.390;2024-02-16T03:39:39;16.50;;;11.93;;
63664;SDS011;49820;33.966;73.390;2024-02-16T03:42:09;18.33;;;11.90;;
63664;SDS011;49820;33.966;73.390;2024-02-16T03:44:39;17.43;;;12.03;;
63664;SDS011;49820;33.966;73.390;2024-02-16T03:47:09;16.88;;;12.15;;
63664;SDS011;49820;33.966;73.390;2024-02-16T03:49:39;18.30;;;12.53;;
63664;SDS011;49820;33.966;73.390;2024-02-16T03:52:12;18.73;;;12.88;;
63664;SDS011;49820;33.966;73.390;2024-02-16T03:54:42;19.13;;;12.77;;
63664;SDS011;49820;33.966;73.390;2024-02-16T03:57:16;16.10;;;11.77;;
63664;SDS011;49820;33.966;73.390;2024-02-16T03:59:46;17.63;;;12.53;;
63664;SDS011;49820;33.966;73.390;2024-02-16T04:02:16;17.73;;;11.80;;
63664;SDS011;49820;33.966;73.390;2024-02-16T04:04:47;17.98;;;12.00;;
63664;SDS011;49820;33.966;73.390;2024-02-16T04:11:21;14.93;;;11.13;;
63664;SDS011;49820;33.966;73.390;2024-02-16T04:13:51;17.10;;;11.52;;
63664;SDS011;49820;33.966;73.390;2024-02-16T05:27:50;17.83;;;9.88;;
63664;SDS011;49820;33.966;73.390;2024-02-16T05:30:20;13.93;;;9.10;;
63664;SDS011;49820;33.966;73.390;2024-02-16T05:32:50;16.48;;;10.85;;
63664;SDS011;49820;33.966;73.390;2024-02-16T05:35:21;14.43;;;10.18;;
63664;SDS011;49820;33.966;73.390;2024-02-16T05:37:56;18.10;;;10.60;;
63664;SDS011;49820;33.966;73.390;2024-02-16T05:40:26;15.27;;;10.63;;
63664;SDS011;49820;33.966;73.390;2024-02-16T05:42:59;15.82;;;11.07;;
63664;SDS011;49820;33.966;73.390;2024-02-16T05:45:29;16.98;;;11.23;;
63664;SDS011;49820;33.966;73.390;2024-02-16T05:47:59;15.20;;;10.60;;
63664;SDS011;49820;33.966;73.390;2024-02-16T05:50:29;16.43;;;10.70;;
63664;SDS011;49820;33.966;73.390;2024-02-16T05:52:59;13.38;;;9.45;;
63664;SDS011;49820;33.966;73.390;2024-02-16T05:55:29;14.05;;;9.68;;
63664;SDS011;49820;33.966;73.390;2024-02-16T05:57:59;14.80;;;10.10;;
63664;SDS011;49820;33.966;73.390;2024-02-16T06:00:28;13.30;;;10.13;;
63664;SDS011;49820;33.966;73.390;2024-02-16T06:03:01;13.68;;;10.30;;
63664;SDS011;49820;33.966;73.390;2024-02-16T06:05:31;16.48;;;10.57;;
63664;SDS011;49820;33.966;73.390;2024-02-16T06:08:02;15.60;;;10.95;;
63664;SDS011;49820;33.966;73.390;2024-02-16T06:10:32;15.48;;;10.50;;
63664;SDS011;49820;33.966;73.390;2024-02-16T06:13:02;13.85;;;10.15;;
63664;SDS011;49820;33.966;73.390;2024-02-16T06:15:32;14.65;;;10.50;;
63664;SDS011;49820;33.966;73.390;2024-02-16T06:18:02;15.25;;;10.65;;
63664;SDS011;49820;33.966;73.390;2024-02-16T06:20:32;14.77;;;10.23;;
63664;SDS011;49820;33.966;73.390;2024-02-16T06:23:02;15.43;;;10.30;;
63664;SDS011;49820;33.966;73.390;2024-02-16T06:25:32;16.83;;;11.48;;
63664;SDS011;49820;33.966;73.390;2024-02-16T06:28:02;15.85;;;11.85;;
63664;SDS011;49820;33.966;73.390;2024-02-16T06:30:33;16.42;;;11.73;;
63664;SDS011;49820;33.966;73.390;2024-02-16T06:33:03;14.45;;;9.93;;
63664;SDS011;49820;33.966;73.390;2024-02-16T06:35:33;15.77;;;11.60;;
63664;SDS011;49820;33.966;73.390;2024-02-16T06:38:03;18.08;;;11.57;;
63664;SDS011;49820;33.966;73.390;2024-02-16T06:40:33;15.38;;;10.75;;
63664;SDS011;49820;33.966;73.390;2024-02-16T06:43:03;17.83;;;11.87;;
63664;SDS011;49820;33.966;73.390;2024-02-16T06:45:34;18.15;;;12.38;;
63664;SDS011;49820;33.966;73.390;2024-02-16T06:48:05;18.20;;;12.73;;
63664;SDS011;49820;33.966;73.390;2024-02-16T06:50:35;18.10;;;13.07;;
63664;SDS011;49820;33.966;73.390;2024-02-16T06:53:05;15.60;;;12.05;;
63664;SDS011;49820;33.966;73.390;2024-02-16T06:55:35;15.18;;;11.88;;
63664;SDS011;49820;33.966;73.390;2024-02-16T06:58:05;15.93;;;12.15;;
63664;SDS011;49820;33.966;73.390;2024-02-16T07:00:35;19.63;;;12.50;;
63664;SDS011;49820;33.966;73.390;2024-02-16T07:03:05;16.35;;;12.60;;
63664;SDS011;49820;33.966;73.390;2024-02-16T07:05:35;17.90;;;13.40;;
63664;SDS011;49820;33.966;73.390;2024-02-16T07:08:05;17.30;;;12.63;;
63664;SDS011;49820;33.966;73.390;2024-02-16T07:10:35;18.10;;;12.30;;
63664;SDS011;49820;33.966;73.390;2024-02-16T07:13:05;16.90;;;12.10;;
63664;SDS011;49820;33.966;73.390;2024-02-16T07:15:35;16.70;;;12.35;;
63664;SDS011;49820;33.966;73.390;2024-02-16T07:18:05;16.13;;;12.52;;
63664;SDS011;49820;33.966;73.390;2024-02-16T07:20:35;17.88;;;12.30;;
63664;SDS011;49820;33.966;73.390;2024-02-16T07:23:06;16.45;;;12.40;;
63664;SDS011;49820;33.966;73.390;2024-02-16T07:25:38;15.23;;;11.48;;
63664;SDS011;49820;33.966;73.390;2024-02-16T07:28:08;18.75;;;12.15;;
63664;SDS011;49820;33.966;73.390;2024-02-16T07:30:38;17.92;;;12.30;;
63664;SDS011;49820;33.966;73.390;2024-02-16T07:33:10;18.83;;;11.95;;
63664;SDS011;49820;33.966;73.390;2024-02-16T07:35:40;17.30;;;12.35;;
63664;SDS011;49820;33.966;73.390;2024-02-16T07:38:10;17.92;;;12.25;;
63664;SDS011;49820;33.966;73.390;2024-02-16T07:40:40;17.40;;;13.13;;
63664;SDS011;49820;33.966;73.390;2024-02-16T07:43:10;16.25;;;11.88;;
63664;SDS011;49820;33.966;73.390;2024-02-16T07:45:40;17.27;;;12.18;;
63664;SDS011;49820;33.966;73.390;2024-02-16T07:48:09;17.60;;;12.23;;
63664;SDS011;49820;33.966;73.390;2024-02-16T07:50:39;16.87;;;12.33;;
63664;SDS011;49820;33.966;73.390;2024-02-16T07:53:09;59.42;;;35.72;;
63664;SDS011;49820;33.966;73.390;2024-02-16T07:55:40;118.15;;;60.78;;
63664;SDS011;49820;33.966;73.390;2024-02-16T07:58:10;26.75;;;16.90;;
63664;SDS011;49820;33.966;73.390;2024-02-16T08:00:41;24.38;;;15.60;;
63664;SDS011;49820;33.966;73.390;2024-02-16T08:03:11;28.70;;;17.48;;
63664;SDS011;49820;33.966;73.390;2024-02-16T08:05:40;18.08;;;12.65;;
63664;SDS011;49820;33.966;73.390;2024-02-16T08:08:10;21.13;;;12.40;;
63664;SDS011;49820;33.966;73.390;2024-02-16T08:10:40;16.38;;;12.52;;
63664;SDS011;49820;33.966;73.390;2024-02-16T08:13:10;25.67;;;15.20;;
63664;SDS011;49820;33.966;73.390;2024-02-16T08:15:40;24.88;;;16.38;;
63664;SDS011;49820;33.966;73.390;2024-02-16T08:18:09;22.35;;;14.18;;
63664;SDS011;49820;33.966;73.390;2024-02-16T08:20:41;16.83;;;12.40;;
63664;SDS011;49820;33.966;73.390;2024-02-16T08:23:11;17.13;;;12.63;;
63664;SDS011;49820;33.966;73.390;2024-02-16T08:25:41;16.77;;;12.18;;
63664;SDS011;49820;33.966;73.390;2024-02-16T08:28:11;16.73;;;11.60;;
63664;SDS011;49820;33.966;73.390;2024-02-16T08:30:41;16.30;;;12.40;;
63664;SDS011;49820;33.966;73.390;2024-02-16T08:33:12;16.20;;;11.47;;
63664;SDS011;49820;33.966;73.390;2024-02-16T08:35:43;16.05;;;11.30;;
63664;SDS011;49820;33.966;73.390;2024-02-16T08:38:13;15.23;;;11.50;;
63664;SDS011;49820;33.966;73.390;2024-02-16T08:40:43;13.55;;;11.35;;
63664;SDS011;49820;33.966;73.390;2024-02-16T08:43:12;17.40;;;11.70;;
63664;SDS011;49820;33.966;73.390;2024-02-16T08:45:42;17.48;;;12.02;;
63664;SDS011;49820;33.966;73.390;2024-02-16T08:48:12;16.60;;;11.77;;
63664;SDS011;49820;33.966;73.390;2024-02-16T08:50:42;15.55;;;11.70;;
63664;SDS011;49820;33.966;73.390;2024-02-16T08:53:12;17.83;;;11.80;;
63664;SDS011;49820;33.966;73.390;2024-02-16T08:55:43;14.88;;;11.10;;
63664;SDS011;49820;33.966;73.390;2024-02-16T08:58:13;15.75;;;11.43;;
63664;SDS011;49820;33.966;73.390;2024-02-16T09:00:42;15.33;;;11.80;;
63664;SDS011;49820;33.966;73.390;2024-02-16T09:03:13;18.33;;;12.07;;
63664;SDS011;49820;33.966;73.390;2024-02-16T09:05:45;16.45;;;11.65;;
63664;SDS011;49820;33.966;73.390;2024-02-16T09:08:15;14.48;;;11.30;;
63664;SDS011;49820;33.966;73.390;2024-02-16T09:10:44;17.25;;;11.57;;
63664;SDS011;49820;33.966;73.390;2024-02-16T09:13:16;18.73;;;12.53;;
63664;SDS011;49820;33.966;73.390;2024-02-16T09:15:50;15.40;;;12.32;;
63664;SDS011;49820;33.966;73.390;2024-02-16T09:18:20;16.95;;;12.63;;
63664;SDS011;49820;33.966;73.390;2024-02-16T09:20:50;16.47;;;12.63;;
63664;SDS011;49820;33.966;73.390;2024-02-16T09:23:20;18.90;;;12.75;;
63664;SDS011;49820;33.966;73.390;2024-02-16T09:25:50;18.85;;;13.68;;
63664;SDS011;49820;33.966;73.390;2024-02-16T09:28:20;19.67;;;14.52;;
63664;SDS011;49820;33.966;73.390;2024-02-16T09:30:56;18.85;;;13.82;;
63664;SDS011;49820;33.966;73.390;2024-02-16T09:33:27;19.15;;;13.75;;
63664;SDS011;49820;33.966;73.390;2024-02-16T09:35:57;20.27;;;13.93;;
63664;SDS011;49820;33.966;73.390;2024-02-16T09:38:27;20.30;;;14.93;;
63664;SDS011;49820;33.966;73.390;2024-02-16T09:40:57;22.73;;;15.32;;
63664;SDS011;49820;33.966;73.390;2024-02-16T09:43:28;18.93;;;14.70;;
63664;SDS011;49820;33.966;73.390;2024-02-16T09:45:59;22.95;;;15.55;;
63664;SDS011;49820;33.966;73.390;2024-02-16T09:48:29;20.95;;;15.75;;
63664;SDS011;49820;33.966;73.390;2024-02-16T09:50:59;21.25;;;15.32;;
63664;SDS011;49820;33.966;73.390;2024-02-16T09:53:29;21.98;;;15.35;;
63664;SDS011;49820;33.966;73.390;2024-02-16T09:55:59;23.42;;;15.27;;
63664;SDS011;49820;33.966;73.390;2024-02-16T09:58:30;22.50;;;15.70;;
63664;SDS011;49820;33.966;73.390;2024-02-16T10:01:00;22.23;;;16.13;;
63664;SDS011;49820;33.966;73.390;2024-02-16T10:03:32;21.08;;;15.85;;
63664;SDS011;49820;33.966;73.390;2024-02-16T10:08:50;24.30;;;17.83;;
63664;SDS011;49820;33.966;73.390;2024-02-16T10:11:26;26.42;;;18.88;;
63664;SDS011;49820;33.966;73.390;2024-02-16T10:14:00;24.67;;;18.30;;
63664;SDS011;49820;33.966;73.390;2024-02-16T10:16:31;23.58;;;17.85;;
63664;SDS011;49820;33.966;73.390;2024-02-16T10:19:05;23.92;;;17.35;;
63664;SDS011;49820;33.966;73.390;2024-02-16T10:21:36;26.42;;;19.08;;
63664;SDS011;49820;33.966;73.390;2024-02-16T10:24:07;23.75;;;17.98;;
63664;SDS011;49820;33.966;73.390;2024-02-16T10:26:42;24.77;;;17.65;;
63664;SDS011;49820;33.966;73.390;2024-02-16T10:29:14;25.80;;;18.35;;
63664;SDS011;49820;33.966;73.390;2024-02-16T10:31:50;24.73;;;17.45;;
63664;SDS011;49820;33.966;73.390;2024-02-16T10:34:20;25.53;;;18.90;;
63664;SDS011;49820;33.966;73.390;2024-02-16T10:36:54;23.15;;;17.60;;
63664;SDS011;49820;33.966;73.390;2024-02-16T10:39:26;25.08;;;18.45;;
63664;SDS011;49820;33.966;73.390;2024-02-16T10:41:56;29.98;;;18.42;;
63664;SDS011;49820;33.966;73.390;2024-02-16T10:44:29;25.83;;;18.67;;
63664;SDS011;49820;33.966;73.390;2024-02-16T10:46:59;28.38;;;20.63;;
63664;SDS011;49820;33.966;73.390;2024-02-16T10:49:28;27.88;;;19.75;;
63664;SDS011;49820;33.966;73.390;2024-02-16T10:51:58;31.23;;;21.35;;
63664;SDS011;49820;33.966;73.390;2024-02-16T10:54:32;30.90;;;21.20;;
63664;SDS011;49820;33.966;73.390;2024-02-16T10:57:07;30.00;;;21.00;;
63664;SDS011;49820;33.966;73.390;2024-02-16T10:59:42;30.77;;;20.98;;
63664;SDS011;49820;33.966;73.390;2024-02-16T11:02:14;31.67;;;22.05;;
63664;SDS011;49820;33.966;73.390;2024-02-16T11:04:45;31.40;;;22.80;;
63664;SDS011;49820;33.966;73.390;2024-02-16T11:07:19;32.15;;;23.08;;
63664;SDS011;49820;33.966;73.390;2024-02-16T11:09:49;37.58;;;23.63;;
63664;SDS011;49820;33.966;73.390;2024-02-16T11:12:19;34.38;;;23.90;;
63664;SDS011;49820;33.966;73.390;2024-02-16T11:14:51;33.73;;;23.70;;
63664;SDS011;49820;33.966;73.390;2024-02-16T11:17:25;35.45;;;24.27;;
63664;SDS011;49820;33.966;73.390;2024-02-16T11:19:57;35.03;;;24.30;;
63664;SDS011;49820;33.966;73.390;2024-02-16T11:22:31;42.28;;;26.98;;
63664;SDS011;49820;33.966;73.390;2024-02-16T11:25:10;37.78;;;26.55;;
63664;SDS011;49820;33.966;73.390;2024-02-16T11:27:41;38.33;;;26.55;;
63664;SDS011;49820;33.966;73.390;2024-02-16T11:30:12;41.63;;;27.67;;
63664;SDS011;49820;33.966;73.390;2024-02-16T11:32:42;41.05;;;28.80;;
63664;SDS011;49820;33.966;73.390;2024-02-16T11:35:12;45.92;;;30.27;;
63664;SDS011;49820;33.966;73.390;2024-02-16T11:37:43;47.53;;;31.83;;
63664;SDS011;49820;33.966;73.390;2024-02-16T11:40:16;45.20;;;30.95;;
63664;SDS011;49820;33.966;73.390;2024-02-16T11:42:47;46.80;;;32.28;;
63664;SDS011;49820;33.966;73.390;2024-02-16T11:45:20;51.85;;;33.22;;
63664;SDS011;49820;33.966;73.390;2024-02-16T11:47:50;49.30;;;34.40;;
63664;SDS011;49820;33.966;73.390;2024-02-16T11:50:19;53.75;;;36.40;;
63664;SDS011;49820;33.966;73.390;2024-02-16T11:52:49;62.42;;;38.05;;
63664;SDS011;49820;33.966;73.390;2024-02-16T11:55:21;57.50;;;37.58;;
63664;SDS011;49820;33.966;73.390;2024-02-16T11:57:51;55.90;;;37.85;;
63664;SDS011;49820;33.966;73.390;2024-02-16T12:00:22;62.83;;;38.33;;
63664;SDS011;49820;33.966;73.390;2024-02-16T12:03:09;59.05;;;37.50;;
63664;SDS011;49820;33.966;73.390;2024-02-16T12:05:39;61.25;;;40.30;;
63664;SDS011;49820;33.966;73.390;2024-02-16T12:08:20;60.03;;;40.92;;
63664;SDS011;49820;33.966;73.390;2024-02-16T12:10:51;74.28;;;45.45;;
63664;SDS011;49820;33.966;73.390;2024-02-16T12:13:21;67.40;;;43.08;;
63664;SDS011;49820;33.966;73.390;2024-02-16T12:15:51;68.88;;;42.67;;
63664;SDS011;49820;33.966;73.390;2024-02-16T12:18:21;66.22;;;44.35;;
63664;SDS011;49820;33.966;73.390;2024-02-16T12:21:08;71.43;;;44.72;;
63664;SDS011;49820;33.966;73.390;2024-02-16T12:23:41;72.00;;;45.23;;
63664;SDS011;49820;33.966;73.390;2024-02-16T12:26:11;75.93;;;47.85;;
